createdAt,value
2022-11-30T00:01:48.821Z,35.58
2022-11-30T00:04:17.882Z,36.35
2022-11-30T00:06:47.379Z,35.15
2022-11-30T00:09:16.625Z,32.53
2022-11-30T00:11:45.980Z,39.90
2022-11-30T00:14:15.017Z,34.00
2022-11-30T00:16:44.540Z,33.85
2022-11-30T00:19:14.979Z,35.20
2022-11-30T00:21:44.990Z,33.08
2022-11-30T00:24:14.170Z,36.95
2022-11-30T00:26:43.640Z,35.55
2022-11-30T00:29:13.113Z,38.35
2022-11-30T00:31:42.497Z,31.98
2022-11-30T00:34:11.536Z,36.80
2022-11-30T00:36:42.277Z,42.33
2022-11-30T00:39:11.516Z,35.28
2022-11-30T00:41:40.982Z,33.22
2022-11-30T00:44:10.120Z,35.83
2022-11-30T00:46:39.371Z,34.38
2022-11-30T00:49:08.519Z,36.63
2022-11-30T00:51:39.067Z,40.38
2022-11-30T00:54:09.587Z,36.40
2022-11-30T00:56:39.063Z,33.67
2022-11-30T00:59:08.230Z,38.25
2022-11-30T01:01:37.709Z,34.72
2022-11-30T01:04:07.478Z,34.15
2022-11-30T01:06:38.104Z,39.17
2022-11-30T01:09:09.255Z,41.85
2022-11-30T01:11:38.653Z,37.83
2022-11-30T01:14:07.697Z,39.58
2022-11-30T01:16:37.049Z,36.03
2022-11-30T01:19:06.145Z,35.85
2022-11-30T01:21:35.474Z,35.55
2022-11-30T01:24:04.724Z,35.15
2022-11-30T01:26:35.452Z,33.85
2022-11-30T01:29:04.533Z,32.83
2022-11-30T01:31:36.850Z,39.00
2022-11-30T01:34:06.077Z,35.45
2022-11-30T01:36:36.516Z,33.33
2022-11-30T01:39:10.059Z,34.63
2022-11-30T01:41:40.808Z,33.20
2022-11-30T01:44:48.878Z,34.28
2022-11-30T01:47:19.523Z,36.05
2022-11-30T01:49:52.547Z,33.40
2022-11-30T01:52:26.046Z,35.85
2022-11-30T01:55:01.732Z,33.30
2022-11-30T01:57:37.433Z,32.75
2022-11-30T02:00:09.978Z,36.47
2022-11-30T02:02:58.086Z,36.20
2022-11-30T02:05:28.058Z,33.17
2022-11-30T02:07:58.412Z,33.90
2022-11-30T02:10:31.210Z,39.38
2022-11-30T02:13:32.877Z,37.53
2022-11-30T02:16:09.414Z,34.63
2022-11-30T02:18:47.699Z,36.00
2022-11-30T02:21:20.460Z,32.83
2022-11-30T02:24:14.665Z,34.70
2022-11-30T02:26:58.605Z,39.08
2022-11-30T02:29:32.807Z,37.50
2022-11-30T02:32:10.722Z,30.42
2022-11-30T02:34:43.962Z,34.72
2022-11-30T02:37:16.209Z,33.95
2022-11-30T02:39:46.141Z,33.67
2022-11-30T02:42:16.634Z,34.58
2022-11-30T02:44:50.368Z,35.03
2022-11-30T02:47:27.358Z,32.60
2022-11-30T02:50:01.620Z,36.13
2022-11-30T02:52:33.097Z,31.35
2022-11-30T02:55:03.481Z,32.75
2022-11-30T02:57:32.638Z,35.13
2022-11-30T03:00:07.213Z,32.33
2022-11-30T03:02:36.355Z,36.25
2022-11-30T03:05:06.367Z,33.17
2022-11-30T03:07:35.789Z,46.45
2022-11-30T03:10:06.178Z,34.70
2022-11-30T03:12:35.328Z,38.90
2022-11-30T03:15:06.514Z,39.25
2022-11-30T03:17:35.500Z,42.60
2022-11-30T03:20:05.564Z,38.08
2022-11-30T03:22:34.620Z,44.42
2022-11-30T03:25:04.033Z,37.50
2022-11-30T03:27:33.217Z,35.88
2022-11-30T03:30:02.613Z,39.03
2022-11-30T03:34:09.173Z,42.20
2022-11-30T03:36:39.953Z,35.97
2022-11-30T03:39:09.468Z,38.15
2022-11-30T03:41:39.043Z,38.53
2022-11-30T03:44:08.133Z,46.60
2022-11-30T03:46:37.486Z,38.30
2022-11-30T03:49:06.608Z,42.63
2022-11-30T03:51:35.924Z,32.97
2022-11-30T03:54:06.413Z,40.67
2022-11-30T03:56:35.800Z,37.72
2022-11-30T03:59:04.860Z,37.58
2022-11-30T04:01:34.406Z,40.78
2022-11-30T04:04:03.552Z,38.45
2022-11-30T04:06:32.896Z,42.17
2022-11-30T04:09:01.991Z,35.63
2022-11-30T04:11:32.672Z,41.55
2022-11-30T04:14:01.873Z,36.40
2022-11-30T04:16:31.323Z,31.67
2022-11-30T04:19:00.544Z,34.17
2022-11-30T04:21:29.918Z,36.63
2022-11-30T04:23:59.021Z,36.85
2022-11-30T04:26:28.481Z,34.40
2022-11-30T04:29:03.208Z,39.80
2022-11-30T04:31:33.935Z,40.80
2022-11-30T04:34:03.145Z,34.97
2022-11-30T04:36:32.416Z,33.80
2022-11-30T04:39:01.518Z,35.78
2022-11-30T04:41:30.955Z,34.80
2022-11-30T04:44:01.473Z,35.58
2022-11-30T04:46:30.883Z,30.88
2022-11-30T04:49:00.192Z,32.22
2022-11-30T04:51:29.873Z,35.55
2022-11-30T04:53:58.865Z,35.53
2022-11-30T04:56:28.288Z,35.67
2022-11-30T04:58:57.349Z,30.55
2022-11-30T05:01:28.151Z,32.42
2022-11-30T05:03:57.765Z,32.28
2022-11-30T05:06:27.232Z,38.63
2022-11-30T05:08:56.395Z,34.20
2022-11-30T05:11:25.744Z,34.58
2022-11-30T05:13:54.875Z,31.92
2022-11-30T05:16:24.317Z,34.00
2022-11-30T05:18:54.843Z,34.28
2022-11-30T05:21:24.267Z,28.80
2022-11-30T05:23:53.437Z,31.42
2022-11-30T05:26:22.855Z,33.03
2022-11-30T05:28:51.870Z,29.38
2022-11-30T05:31:21.319Z,38.13
2022-11-30T05:33:53.683Z,29.33
2022-11-30T05:36:23.257Z,29.67
2022-11-30T05:38:52.337Z,34.53
2022-11-30T05:41:21.745Z,34.88
2022-11-30T05:43:53.264Z,34.40
2022-11-30T05:46:22.708Z,35.55
2022-11-30T05:48:53.439Z,35.97
2022-11-30T05:51:23.467Z,37.25
2022-11-30T05:53:52.554Z,36.95
2022-11-30T05:56:22.965Z,30.45
2022-11-30T05:58:52.125Z,37.88
2022-11-30T06:01:22.790Z,40.28
2022-11-30T06:03:53.526Z,34.08
2022-11-30T06:06:23.947Z,32.40
2022-11-30T06:08:53.048Z,36.83
2022-11-30T06:11:22.384Z,38.10
2022-11-30T06:13:51.548Z,36.13
2022-11-30T06:16:20.981Z,33.67
2022-11-30T06:18:50.129Z,36.92
2022-11-30T06:21:24.392Z,36.88
2022-11-30T06:23:54.445Z,28.60
2022-11-30T06:26:24.190Z,33.88
2022-11-30T06:28:53.231Z,31.23
2022-11-30T06:31:22.670Z,40.00
2022-11-30T06:33:52.011Z,33.00
2022-11-30T06:36:24.724Z,34.40
2022-11-30T06:38:54.004Z,31.42
2022-11-30T06:41:23.751Z,34.78
2022-11-30T06:43:53.050Z,32.97
2022-11-30T06:46:22.875Z,30.17
2022-11-30T06:48:52.258Z,31.80
2022-11-30T06:51:23.156Z,35.50
2022-11-30T06:53:52.298Z,30.00
2022-11-30T06:56:22.173Z,28.67
2022-11-30T06:58:52.158Z,27.70
2022-11-30T07:01:21.768Z,34.25
2022-11-30T07:03:51.038Z,30.40
2022-11-30T07:06:20.469Z,26.90
2022-11-30T07:08:51.029Z,32.92
2022-11-30T07:11:20.323Z,37.53
2022-11-30T07:13:49.381Z,33.95
2022-11-30T07:16:18.752Z,34.72
2022-11-30T07:18:47.859Z,34.28
2022-11-30T07:21:17.391Z,34.35
2022-11-30T07:24:04.039Z,33.20
2022-11-30T07:26:35.174Z,32.92
2022-11-30T07:29:05.359Z,30.25
2022-11-30T07:31:35.612Z,36.08
2022-11-30T07:34:08.060Z,32.70
2022-11-30T07:36:38.110Z,38.90
2022-11-30T07:39:07.362Z,34.03
2022-11-30T07:41:38.058Z,32.63
2022-11-30T07:44:07.750Z,36.63
2022-11-30T07:46:38.085Z,29.35
2022-11-30T07:49:08.822Z,29.25
2022-11-30T07:51:38.860Z,30.40
2022-11-30T07:54:08.133Z,31.15
2022-11-30T07:56:38.941Z,31.65
2022-11-30T07:59:08.207Z,34.15
2022-11-30T08:01:37.736Z,35.17
2022-11-30T08:04:07.170Z,30.92
2022-11-30T08:06:36.603Z,31.00
2022-11-30T08:09:06.220Z,31.13
2022-11-30T08:11:39.191Z,35.90
2022-11-30T08:14:08.190Z,34.45
2022-11-30T08:16:38.966Z,33.53
2022-11-30T08:19:08.375Z,31.42
2022-11-30T08:21:38.168Z,32.67
2022-11-30T08:24:07.596Z,31.13
2022-11-30T08:26:37.813Z,36.85
2022-11-30T08:29:08.294Z,30.85
2022-11-30T08:31:38.820Z,30.17
2022-11-30T08:34:11.011Z,29.73
2022-11-30T08:36:41.451Z,32.42
2022-11-30T08:39:13.013Z,31.15
2022-11-30T08:41:42.389Z,31.55
2022-11-30T08:44:12.966Z,30.77
2022-11-30T08:46:51.614Z,29.83
2022-11-30T08:49:23.546Z,44.10
2022-11-30T08:54:47.064Z,37.25
2022-11-30T08:57:17.520Z,29.00
2022-11-30T08:59:48.884Z,36.30
2022-11-30T09:02:20.770Z,33.90
2022-11-30T09:04:51.807Z,30.30
2022-11-30T09:07:21.265Z,35.92
2022-11-30T09:09:50.577Z,31.48
2022-11-30T09:12:19.912Z,32.22
2022-11-30T09:14:57.411Z,32.90
2022-11-30T09:17:27.798Z,31.73
2022-11-30T09:19:57.048Z,30.02
2022-11-30T09:22:26.665Z,32.90
2022-11-30T09:24:56.058Z,35.83
2022-11-30T09:27:30.256Z,38.88
2022-11-30T09:30:01.144Z,34.08
2022-11-30T09:32:30.631Z,37.30
2022-11-30T09:34:59.604Z,37.97
2022-11-30T09:37:28.877Z,40.20
2022-11-30T09:39:58.034Z,33.45
2022-11-30T09:42:39.942Z,36.30
2022-11-30T09:45:20.335Z,38.95
2022-11-30T09:48:29.593Z,46.15
2022-11-30T09:51:06.620Z,35.50
2022-11-30T09:53:41.729Z,36.08
2022-11-30T09:56:30.652Z,31.33
2022-11-30T09:59:04.116Z,34.35
2022-11-30T10:01:37.602Z,34.95
2022-11-30T10:04:07.778Z,31.80
2022-11-30T10:06:44.695Z,37.90
2022-11-30T10:09:32.121Z,39.55
2022-11-30T10:12:07.019Z,35.70
2022-11-30T10:15:08.350Z,33.88
2022-11-30T10:17:47.225Z,38.83
2022-11-30T10:20:39.682Z,39.70
2022-11-30T10:23:27.127Z,43.42
2022-11-30T10:25:58.607Z,36.92
2022-11-30T10:28:48.504Z,39.65
2022-11-30T10:31:19.763Z,33.67
2022-11-30T10:33:52.288Z,30.55
2022-11-30T10:36:28.674Z,29.45
2022-11-30T10:39:03.848Z,43.45
2022-11-30T10:41:37.651Z,33.45
2022-11-30T10:44:12.409Z,39.08
2022-11-30T10:46:46.752Z,42.50
2022-11-30T10:49:19.816Z,41.25
2022-11-30T10:51:55.102Z,42.95
2022-11-30T10:54:24.932Z,41.78
2022-11-30T10:56:54.445Z,40.08
2022-11-30T10:59:28.176Z,37.50
2022-11-30T11:01:57.773Z,44.22
2022-11-30T11:04:28.613Z,39.33
2022-11-30T11:07:00.513Z,46.35
2022-11-30T11:09:38.460Z,40.88
2022-11-30T11:12:15.531Z,34.97
2022-11-30T11:14:44.581Z,36.53
2022-11-30T11:17:26.208Z,42.33
2022-11-30T11:19:56.831Z,43.63
2022-11-30T11:22:28.295Z,31.15
2022-11-30T11:25:10.924Z,35.40
2022-11-30T11:27:44.834Z,42.15
2022-11-30T11:30:20.032Z,36.25
2022-11-30T11:33:01.122Z,38.80
2022-11-30T11:35:40.508Z,48.28
2022-11-30T11:38:24.896Z,41.00
2022-11-30T11:40:57.266Z,41.33
2022-11-30T11:43:28.925Z,43.17
2022-11-30T11:46:02.577Z,42.80
2022-11-30T11:48:36.245Z,48.35
2022-11-30T11:51:08.818Z,42.67
2022-11-30T11:53:58.324Z,42.80
2022-11-30T11:56:29.591Z,41.25
2022-11-30T11:59:03.768Z,45.15
2022-11-30T12:01:44.300Z,49.42
2022-11-30T12:04:34.421Z,47.53
2022-11-30T12:07:18.064Z,51.80
2022-11-30T12:10:43.220Z,45.72
2022-11-30T12:13:01.492Z,63.40
2022-11-30T12:15:37.875Z,49.88
2022-11-30T12:18:23.769Z,46.53
2022-11-30T12:20:59.300Z,52.60
2022-11-30T12:23:54.707Z,40.28
2022-11-30T12:26:35.787Z,55.80
2022-11-30T12:29:23.328Z,51.35
2022-11-30T12:32:24.534Z,39.28
2022-11-30T12:35:10.075Z,39.72
2022-11-30T12:37:49.910Z,44.35
2022-11-30T12:40:33.075Z,38.88
2022-11-30T12:43:14.061Z,44.97
2022-11-30T12:45:45.281Z,43.55
2022-11-30T12:48:27.445Z,46.53
2022-11-30T12:51:09.739Z,43.72
2022-11-30T12:53:44.733Z,47.67
2022-11-30T12:56:28.854Z,46.75
2022-11-30T12:59:07.983Z,44.08
2022-11-30T13:01:51.329Z,43.53
2022-11-30T13:04:27.940Z,43.85
2022-11-30T13:07:01.514Z,45.50
2022-11-30T13:09:34.645Z,45.13
2022-11-30T13:12:12.303Z,49.33
2022-11-30T13:14:41.966Z,37.28
2022-11-30T13:17:18.166Z,36.90
2022-11-30T13:19:55.675Z,42.28
2022-11-30T13:22:33.166Z,38.95
2022-11-30T13:25:13.595Z,43.92
2022-11-30T13:27:54.475Z,46.65
2022-11-30T13:30:36.035Z,42.72
2022-11-30T13:33:53.953Z,46.17
2022-11-30T13:36:39.550Z,41.70
2022-11-30T13:39:30.284Z,38.88
2022-11-30T13:42:34.463Z,43.53
2022-11-30T13:45:32.272Z,44.10
2022-11-30T13:48:17.578Z,35.97
2022-11-30T13:50:49.956Z,37.70
2022-11-30T13:53:28.757Z,38.22
2022-11-30T13:56:04.013Z,40.47
2022-11-30T13:58:33.790Z,34.90
2022-11-30T14:01:28.941Z,41.90
2022-11-30T14:04:31.947Z,40.20
2022-11-30T14:07:01.463Z,43.28
2022-11-30T14:10:07.319Z,46.75
2022-11-30T14:13:01.600Z,44.97
2022-11-30T14:15:53.706Z,44.90
2022-11-30T14:18:32.751Z,47.20
2022-11-30T14:21:05.209Z,45.10
2022-11-30T14:23:49.727Z,46.42
2022-11-30T14:26:25.897Z,42.53
2022-11-30T14:29:02.740Z,49.63
2022-11-30T14:31:37.929Z,45.58
2022-11-30T14:34:16.805Z,42.55
2022-11-30T14:36:49.988Z,43.03
2022-11-30T14:39:28.303Z,45.45
2022-11-30T14:41:57.707Z,46.83
2022-11-30T14:44:27.683Z,49.08
2022-11-30T14:46:57.592Z,51.97
2022-11-30T14:49:28.197Z,50.65
2022-11-30T14:52:03.693Z,56.15
2022-11-30T14:54:51.061Z,44.60
2022-11-30T14:57:29.199Z,47.45
2022-11-30T14:59:58.924Z,47.65
2022-11-30T15:02:31.521Z,59.47
2022-11-30T15:05:02.724Z,69.50
2022-11-30T15:07:32.276Z,54.75
2022-11-30T15:10:07.499Z,46.58
2022-11-30T15:12:38.264Z,48.50
2022-11-30T15:15:15.393Z,49.83
2022-11-30T15:17:52.377Z,50.03
2022-11-30T15:20:28.761Z,53.72
2022-11-30T15:23:01.654Z,40.03
2022-11-30T15:25:36.751Z,45.35
2022-11-30T15:28:07.526Z,46.58
2022-11-30T15:30:40.451Z,42.88
2022-11-30T15:33:19.229Z,39.03
2022-11-30T15:38:43.114Z,39.17
2022-11-30T15:41:20.245Z,38.83
2022-11-30T15:43:55.493Z,38.42
2022-11-30T15:46:39.983Z,37.47
2022-11-30T15:51:59.199Z,45.58
2022-11-30T15:54:49.080Z,46.92
2022-11-30T15:57:18.677Z,42.88
2022-11-30T16:00:10.306Z,39.38
2022-11-30T16:02:39.963Z,42.05
2022-11-30T16:05:26.898Z,44.03
2022-11-30T16:08:00.059Z,48.15
2022-11-30T16:10:34.964Z,49.38
2022-11-30T16:13:04.401Z,52.30
2022-11-30T16:15:36.138Z,48.53
2022-11-30T16:18:16.168Z,49.58
2022-11-30T16:20:46.385Z,44.25
2022-11-30T16:23:17.775Z,43.08
2022-11-30T16:25:48.644Z,48.58
2022-11-30T16:28:19.958Z,40.58
2022-11-30T16:30:50.483Z,47.85
2022-11-30T16:33:21.350Z,43.85
2022-11-30T16:35:55.723Z,42.45
2022-11-30T16:38:27.217Z,78.53
2022-11-30T16:40:57.025Z,56.58
2022-11-30T16:43:26.900Z,47.08
2022-11-30T16:45:56.272Z,57.95
2022-11-30T16:48:25.450Z,65.38
2022-11-30T16:50:54.856Z,63.15
2022-11-30T16:53:28.650Z,62.92
2022-11-30T16:55:58.344Z,54.88
2022-11-30T16:58:27.398Z,56.13
2022-11-30T17:00:56.846Z,62.63
2022-11-30T17:03:31.039Z,54.03
2022-11-30T17:06:00.462Z,58.25
2022-11-30T17:08:31.115Z,53.72
2022-11-30T17:11:00.538Z,50.30
2022-11-30T17:13:29.618Z,50.90
2022-11-30T17:15:58.988Z,46.90
2022-11-30T17:18:28.284Z,47.15
2022-11-30T17:20:57.798Z,61.83
2022-11-30T17:23:26.891Z,64.97
2022-11-30T17:25:57.584Z,60.65
2022-11-30T17:28:26.660Z,50.67
2022-11-30T17:30:56.038Z,54.65
2022-11-30T17:33:25.234Z,50.67
2022-11-30T17:35:54.941Z,45.38
2022-11-30T17:38:26.322Z,47.08
2022-11-30T17:40:57.160Z,56.00
2022-11-30T17:43:26.333Z,54.95
2022-11-30T17:45:55.771Z,50.97
2022-11-30T17:48:24.950Z,49.08
2022-11-30T17:50:54.543Z,39.05
2022-11-30T17:53:23.650Z,44.72
2022-11-30T17:56:03.376Z,44.60
2022-11-30T17:58:36.137Z,44.40
2022-11-30T18:01:08.289Z,34.50
2022-11-30T18:03:37.488Z,48.20
2022-11-30T18:06:07.117Z,39.00
2022-11-30T18:08:38.014Z,38.25
2022-11-30T18:11:11.688Z,39.33
2022-11-30T18:13:41.214Z,43.13
2022-11-30T18:16:13.122Z,35.88
2022-11-30T18:18:47.323Z,39.75
2022-11-30T18:21:20.304Z,41.20
2022-11-30T18:23:50.304Z,40.22
2022-11-30T18:26:23.350Z,52.92
2022-11-30T18:28:54.465Z,133.88
2022-11-30T18:31:23.891Z,58.40
2022-11-30T18:33:56.845Z,80.00
2022-11-30T18:36:26.548Z,67.13
2022-11-30T18:38:56.197Z,85.68
2022-11-30T18:41:28.666Z,61.10
2022-11-30T18:43:58.062Z,56.67
2022-11-30T18:46:27.597Z,41.85
2022-11-30T18:48:56.726Z,53.45
2022-11-30T18:51:29.645Z,49.42
2022-11-30T18:54:00.376Z,44.08
2022-11-30T18:56:33.382Z,43.95
2022-11-30T18:59:04.177Z,49.83
2022-11-30T19:01:34.490Z,44.05
2022-11-30T19:04:05.904Z,47.28
2022-11-30T19:06:35.963Z,42.60
2022-11-30T19:09:09.479Z,70.32
2022-11-30T19:11:41.763Z,60.58
2022-11-30T19:14:13.214Z,49.20
2022-11-30T19:16:43.203Z,49.25
2022-11-30T19:19:14.992Z,64.05
2022-11-30T19:21:47.645Z,67.53
2022-11-30T19:24:17.244Z,68.18
2022-11-30T19:26:47.981Z,67.60
2022-11-30T19:29:17.337Z,55.85
2022-11-30T19:31:46.661Z,47.33
2022-11-30T19:34:15.782Z,66.70
2022-11-30T19:36:45.208Z,107.35
2022-11-30T19:39:14.301Z,103.97
2022-11-30T19:41:43.667Z,69.75
2022-11-30T19:44:16.272Z,63.85
2022-11-30T19:46:45.770Z,61.53
2022-11-30T19:49:15.725Z,59.30
2022-11-30T19:51:45.422Z,60.78
2022-11-30T19:54:14.561Z,75.18
2022-11-30T19:56:44.413Z,66.82
2022-11-30T19:59:14.814Z,78.13
2022-11-30T20:01:44.208Z,68.50
2022-11-30T20:04:13.479Z,68.82
2022-11-30T20:06:42.949Z,68.25
2022-11-30T20:09:12.775Z,74.53
2022-11-30T20:11:42.368Z,79.05
2022-11-30T20:14:17.764Z,102.53
2022-11-30T20:19:17.344Z,63.75
2022-11-30T20:21:48.287Z,64.18
2022-11-30T20:24:17.463Z,75.05
2022-11-30T20:26:47.341Z,61.83
2022-11-30T20:29:19.337Z,63.55
2022-11-30T20:31:50.393Z,56.83
2022-11-30T20:34:19.720Z,114.22
2022-11-30T20:36:49.448Z,143.00
2022-11-30T20:39:18.714Z,73.32
2022-11-30T20:41:48.103Z,59.65
2022-11-30T20:44:19.113Z,57.20
2022-11-30T20:46:48.515Z,55.90
2022-11-30T20:49:21.147Z,58.83
2022-11-30T20:51:51.539Z,57.08
2022-11-30T20:54:20.998Z,48.50
2022-11-30T20:56:51.370Z,52.17
2022-11-30T20:59:26.440Z,54.03
2022-11-30T21:01:57.411Z,53.10
2022-11-30T21:04:27.540Z,52.88
2022-11-30T21:06:57.035Z,76.97
2022-11-30T21:09:26.231Z,178.02
2022-11-30T21:11:55.720Z,83.40
2022-11-30T21:14:26.204Z,80.68
2022-11-30T21:16:55.616Z,82.43
2022-11-30T21:19:24.815Z,64.72
2022-11-30T21:21:56.064Z,60.65
2022-11-30T21:24:25.046Z,50.83
2022-11-30T21:26:54.497Z,52.50
2022-11-30T21:29:25.187Z,50.58
2022-11-30T21:31:54.499Z,61.63
2022-11-30T21:34:23.744Z,70.25
2022-11-30T21:36:53.202Z,62.13
2022-11-30T21:39:22.261Z,66.97
2022-11-30T21:41:51.559Z,63.20
2022-11-30T21:44:20.798Z,59.17
2022-11-30T21:46:51.805Z,63.95
2022-11-30T21:49:20.994Z,65.18
2022-11-30T21:51:50.557Z,46.30
2022-11-30T21:54:19.843Z,47.67
2022-11-30T21:56:52.400Z,50.20
2022-11-30T21:59:21.642Z,52.80
2022-11-30T22:01:52.432Z,63.78
2022-11-30T22:04:21.543Z,62.90
2022-11-30T22:06:51.109Z,59.92
2022-11-30T22:09:20.132Z,58.95
2022-11-30T22:11:49.491Z,54.67
2022-11-30T22:14:19.128Z,54.08
2022-11-30T22:16:48.478Z,58.15
2022-11-30T22:19:19.518Z,57.78
2022-11-30T22:21:50.405Z,61.25
2022-11-30T22:24:19.964Z,53.85
2022-11-30T22:26:50.153Z,66.40
2022-11-30T22:29:22.221Z,59.20
2022-11-30T22:31:54.027Z,58.97
2022-11-30T22:34:24.823Z,51.55
2022-11-30T22:36:53.960Z,48.17
2022-11-30T22:39:23.724Z,63.90
2022-11-30T22:41:56.100Z,57.75
2022-11-30T22:44:26.802Z,54.13
2022-11-30T22:46:55.967Z,62.47
2022-11-30T22:49:27.035Z,63.33
2022-11-30T22:51:56.167Z,70.13
2022-11-30T22:54:25.538Z,66.97
2022-11-30T22:56:54.946Z,55.45
2022-11-30T22:59:24.325Z,56.30
2022-11-30T23:01:53.500Z,65.68
2022-11-30T23:04:23.934Z,57.55
2022-11-30T23:06:54.601Z,55.65
2022-11-30T23:09:25.085Z,51.28
2022-11-30T23:11:54.204Z,52.20
2022-11-30T23:14:23.809Z,56.80
2022-11-30T23:16:52.820Z,56.50
2022-11-30T23:19:22.193Z,64.95
2022-11-30T23:21:51.351Z,55.78
2022-11-30T23:24:22.497Z,68.25
2022-11-30T23:26:52.064Z,68.53
2022-11-30T23:29:21.394Z,63.10
2022-11-30T23:31:51.031Z,59.90
2022-11-30T23:34:22.330Z,49.83
2022-11-30T23:36:53.230Z,84.68
2022-11-30T23:39:24.025Z,71.90
2022-11-30T23:41:53.171Z,81.63
2022-11-30T23:44:22.689Z,68.40
2022-11-30T23:46:51.709Z,64.10
2022-11-30T23:49:21.163Z,55.63
2022-11-30T23:51:50.338Z,54.92
2022-11-30T23:54:19.629Z,51.40
2022-11-30T23:56:50.131Z,52.60
2022-11-30T23:59:19.539Z,62.58
